Time;durP1;ratioP1;P1;durP2;ratioP2;P2;SDS_P1;SDS_P2;PMS_P1;PMS_P2;Temp;Humidity;BMP_temperature;BMP_pressure;BME280_temperature;BME280_humidity;BME280_pressure;Samples;Min_cycle;Max_cycle;Signal;HPM_P1;HPM_P2
2022/04/13 00:00:55;;;;;;;5.77;4.37;;;;;;;13.48;48.98;99960.78;5046798;28;20493;-66
2022/04/13 00:03:22;;;;;;;7.77;5.27;;;;;;;13.47;49.29;99966.31;5059857;28;20524;-67
2022/04/13 00:05:49;;;;;;;7.33;5.00;;;;;;;13.40;49.15;99963.44;5059935;28;20547;-66
2022/04/13 00:08:16;;;;;;;5.93;4.60;;;;;;;13.49;49.24;99964.31;5060647;28;20548;-66
2022/04/13 00:10:44;;;;;;;8.43;5.07;;;;;;;13.45;49.34;99963.78;5049797;28;20497;-66
2022/04/13 00:13:11;;;;;;;9.90;4.63;;;;;;;13.33;49.71;99962.44;5046495;28;20837;-66
2022/04/13 00:15:38;;;;;;;8.17;5.57;;;;;;;13.41;49.45;99958.94;5040273;28;20473;-67
2022/04/13 00:18:06;;;;;;;8.00;4.90;;;;;;;13.34;49.23;99961.44;5044785;28;20520;-67
2022/04/13 00:20:32;;;;;;;8.23;5.30;;;;;;;13.28;49.31;99965.59;5057896;28;20457;-66
2022/04/13 00:22:59;;;;;;;5.17;4.67;;;;;;;13.32;49.44;99966.97;5059436;28;20488;-67
2022/04/13 00:25:26;;;;;;;9.03;5.20;;;;;;;13.31;49.46;99965.28;5057726;28;20453;-68
2022/04/13 00:27:54;;;;;;;5.23;4.70;;;;;;;13.28;49.41;99968.28;5055397;28;20477;-67
2022/04/13 00:30:21;;;;;;;7.57;5.07;;;;;;;13.22;49.72;99968.94;5047855;28;20464;-67
2022/04/13 00:32:47;;;;;;;5.83;4.17;;;;;;;13.23;49.91;99964.41;5059441;28;20457;-67
2022/04/13 00:35:14;;;;;;;5.17;4.60;;;;;;;13.32;49.51;99958.91;5057950;28;20921;-67
2022/04/13 00:37:41;;;;;;;8.80;4.27;;;;;;;13.26;49.86;99964.06;5058761;28;20503;-66
2022/04/13 00:40:08;;;;;;;8.10;4.70;;;;;;;13.17;49.90;99966.72;5046710;28;20547;-66
2022/04/13 00:42:35;;;;;;;5.70;4.60;;;;;;;13.29;49.53;99964.59;5059915;28;20488;-66
2022/04/13 00:45:04;;;;;;;7.40;4.77;;;;;;;13.27;49.08;99960.41;5060045;28;20559;-66
2022/04/13 00:47:30;;;;;;;6.50;4.57;;;;;;;13.46;48.62;99957.44;5079499;28;20506;-66
2022/04/13 00:49:57;;;;;;;5.90;4.07;;;;;;;13.46;48.61;99961.97;5079423;28;20455;-66
2022/04/13 00:52:27;;;;;;;9.57;4.13;;;;;;;13.45;48.66;99963.78;5079014;28;20507;-67
2022/04/13 00:54:55;;;;;;;5.33;4.13;;;;;;;13.40;48.45;99962.63;5079980;28;20464;-67
2022/04/13 00:57:22;;;;;;;5.30;4.00;;;;;;;13.49;48.18;99962.47;5079073;28;20574;-67
2022/04/13 00:59:53;;;;;;;4.90;3.73;;;;;;;13.58;48.20;99962.47;5079108;28;20456;-67
2022/04/13 01:02:22;;;;;;;4.87;4.30;;;;;;;13.54;48.02;99960.13;5064797;28;20538;-67
2022/04/13 01:04:49;;;;;;;5.90;3.80;;;;;;;13.47;48.75;99966.31;5064276;28;20468;-66
2022/04/13 01:07:16;;;;;;;4.60;4.10;;;;;;;13.42;48.95;99971.34;5079193;28;20484;-66
2022/04/13 01:09:42;;;;;;;8.67;4.37;;;;;;;13.42;49.48;99964.16;5079878;28;20455;-67
2022/04/13 01:12:09;;;;;;;4.30;3.90;;;;;;;13.34;49.43;99966.81;5078842;28;20511;-67
2022/04/13 01:14:36;;;;;;;10.07;4.80;;;;;;;13.21;49.52;99969.97;5067946;28;20440;-67
2022/04/13 01:17:04;;;;;;;6.13;3.83;;;;;;;13.22;49.44;99973.47;5079434;28;20475;-67
2022/04/13 01:19:33;;;;;;;5.37;4.00;;;;;;;13.17;49.76;99973.97;5078752;28;20439;-67
2022/04/13 01:22:03;;;;;;;6.90;4.30;;;;;;;13.26;49.16;99964.06;5078273;28;20487;-67
2022/04/13 01:24:32;;;;;;;5.50;3.50;;;;;;;13.34;48.72;99974.88;5079174;28;20990;-67
2022/04/13 01:26:59;;;;;;;5.90;3.47;;;;;;;13.25;49.18;99981.22;5038614;28;20491;-66
2022/04/13 01:29:25;;;;;;;4.07;3.63;;;;;;;13.16;49.29;99985.72;5046899;28;20545;-67
2022/04/13 01:31:53;;;;;;;4.23;3.83;;;;;;;13.10;49.72;99983.69;5059098;28;20483;-67
2022/04/13 01:34:20;;;;;;;4.57;3.80;;;;;;;13.11;49.98;99993.41;5059429;28;20433;-67
2022/04/13 01:36:47;;;;;;;5.90;3.83;;;;;;;13.02;50.59;99992.56;5058483;28;20503;-67
2022/04/13 01:39:13;;;;;;;4.30;3.47;;;;;;;12.93;50.25;100002.41;5059761;28;20461;-67
2022/04/13 01:41:41;;;;;;;5.80;3.90;;;;;;;12.91;50.30;100000.88;5059260;28;20507;-67
2022/04/13 01:44:08;;;;;;;6.97;3.40;;;;;;;12.86;50.62;99995.16;5059632;28;20504;-67
2022/04/13 01:46:35;;;;;;;4.70;3.80;;;;;;;13.06;49.97;99985.00;5058627;28;20500;-68
2022/04/13 01:49:03;;;;;;;5.13;3.73;;;;;;;12.98;50.73;99993.88;5058940;28;20468;-67
2022/04/13 01:51:30;;;;;;;4.97;3.70;;;;;;;12.86;50.83;100005.91;5062133;28;20480;-67
2022/04/13 01:53:57;;;;;;;5.70;3.50;;;;;;;12.77;50.96;100019.25;5063450;28;20976;-67
2022/04/13 01:56:23;;;;;;;6.77;4.20;;;;;;;12.72;51.22;100015.38;5062437;28;20503;-67
2022/04/13 01:58:51;;;;;;;5.27;3.90;;;;;;;12.71;50.88;100011.88;5063403;28;20464;-67
2022/04/13 02:01:19;;;;;;;7.83;4.10;;;;;;;12.66;50.98;100016.03;5042037;28;20473;-67
2022/04/13 02:03:45;;;;;;;6.13;4.10;;;;;;;12.85;50.52;100014.97;5042828;28;20516;-66
2022/04/13 02:06:14;;;;;;;7.47;3.67;;;;;;;12.80;50.49;100023.47;5042203;28;20544;-66
2022/04/13 02:08:41;;;;;;;6.43;3.90;;;;;;;12.79;50.79;100028.03;5043373;28;20426;-67
2022/04/13 02:11:08;;;;;;;4.40;3.27;;;;;;;12.83;50.75;100017.81;5042640;28;20544;-66
2022/04/13 02:13:34;;;;;;;5.03;3.30;;;;;;;12.75;50.96;100015.91;5047626;28;20512;-66
2022/04/13 02:16:02;;;;;;;3.73;3.33;;;;;;;12.81;51.23;100019.78;5062021;28;20496;-66
2022/04/13 02:18:29;;;;;;;4.23;3.73;;;;;;;12.76;51.20;100016.78;5062970;28;20441;-67
2022/04/13 02:20:56;;;;;;;6.70;3.70;;;;;;;12.76;51.08;100016.78;5060788;28;20518;-67
2022/04/13 02:23:22;;;;;;;3.97;3.53;;;;;;;12.76;51.24;100014.91;5062480;28;21058;-67
2022/04/13 02:25:49;;;;;;;7.50;3.93;;;;;;;12.73;51.53;100017.91;5072032;28;20500;-67
2022/04/13 02:28:16;;;;;;;6.00;3.23;;;;;;;12.63;51.84;100022.56;5083177;28;20464;-67
2022/04/13 02:30:42;;;;;;;3.60;3.30;;;;;;;12.59;51.99;100022.03;5082037;28;20463;-66
2022/04/13 02:33:10;;;;;;;5.70;3.50;;;;;;;12.54;52.47;100021.66;5082227;28;20448;-67
2022/04/13 02:35:37;;;;;;;4.30;3.70;;;;;;;12.50;52.87;100028.38;5075905;28;20467;-67
2022/04/13 02:38:04;;;;;;;5.30;3.60;;;;;;;12.50;51.95;100016.78;5062647;28;20496;-67
2022/04/13 02:40:31;;;;;;;3.73;3.43;;;;;;;12.46;52.03;100028.81;5061468;28;20468;-66
2022/04/13 02:42:57;;;;;;;3.80;3.40;;;;;;;12.48;52.43;100027.69;5061923;28;20895;-67
2022/04/13 02:45:24;;;;;;;5.20;3.80;;;;;;;12.50;52.44;100027.50;5061340;28;20476;-67
2022/04/13 02:47:51;;;;;;;3.90;3.30;;;;;;;12.52;52.41;100026.34;5062131;28;20433;-66
2022/04/13 02:50:19;;;;;;;5.37;4.00;;;;;;;12.31;53.42;100017.81;5060463;28;20445;-66
2022/04/13 02:52:46;;;;;;;6.03;4.07;;;;;;;12.39;52.33;100025.94;5061465;28;20453;-67
2022/04/13 02:55:12;;;;;;;4.43;3.30;;;;;;;12.37;52.51;100026.09;5061786;28;20493;-66
2022/04/13 02:57:39;;;;;;;4.80;3.43;;;;;;;12.45;53.13;100028.00;5061535;28;20456;-66
2022/04/13 03:00:08;;;;;;;5.57;3.80;;;;;;;12.15;55.36;100029.28;5061472;28;20480;-66
2022/04/13 03:02:35;;;;;;;3.50;3.20;;;;;;;12.13;54.37;100032.13;5060983;28;20461;-67
2022/04/13 03:05:02;;;;;;;5.47;3.20;;;;;;;12.10;54.61;100028.91;5061625;28;20590;-67
2022/04/13 03:07:32;;;;;;;4.30;3.80;;;;;;;12.07;54.07;100034.59;5061043;28;20503;-67
2022/04/13 03:09:59;;;;;;;6.87;3.53;;;;;;;12.10;53.61;100035.13;5061892;28;20460;-67
2022/04/13 03:12:25;;;;;;;4.37;3.37;;;;;;;12.15;53.36;100037.31;5061106;28;20477;-67
2022/04/13 03:14:52;;;;;;;6.60;3.67;;;;;;;12.33;52.78;100038.13;5061849;28;20508;-66
2022/04/13 03:17:19;;;;;;;5.73;3.37;;;;;;;12.21;53.31;100036.72;5061036;28;21038;-66
2022/04/13 03:19:45;;;;;;;3.30;3.00;;;;;;;12.13;53.10;100032.13;5061227;28;20452;-66
2022/04/13 03:22:12;;;;;;;5.77;3.80;;;;;;;12.11;53.79;100027.91;5060168;28;20480;-66
2022/04/13 03:24:40;;;;;;;3.33;3.03;;;;;;;11.98;54.49;100031.84;5061871;28;20508;-66
2022/04/13 03:27:07;;;;;;;6.03;3.77;;;;;;;12.04;54.08;100030.38;5060790;28;20485;-66
2022/04/13 03:29:33;;;;;;;7.33;3.63;;;;;;;11.85;55.59;100020.66;5061916;28;20456;-66
2022/04/13 03:32:00;;;;;;;4.33;3.73;;;;;;;11.92;54.39;100027.09;5060613;28;20508;-66
2022/04/13 03:34:28;;;;;;;4.13;3.13;;;;;;;11.87;55.17;100030.22;5067134;28;20485;-66
2022/04/13 03:36:54;;;;;;;6.23;3.90;;;;;;;11.85;55.68;100031.34;5079548;28;20479;-66
2022/04/13 03:39:21;;;;;;;5.20;3.53;;;;;;;11.72;55.79;100023.72;5080790;28;20444;-66
2022/04/13 03:41:50;;;;;;;6.33;3.10;;;;;;;11.66;56.03;100027.84;5080239;28;20503;-66
2022/04/13 03:44:17;;;;;;;6.03;3.37;;;;;;;11.62;57.25;100033.69;5074261;28;20541;-66
2022/04/13 03:46:44;;;;;;;4.67;3.70;;;;;;;11.49;56.07;100026.88;5069700;28;20469;-66
2022/04/13 03:49:11;;;;;;;3.27;2.90;;;;;;;11.51;55.63;100026.72;5060356;28;20463;-66
2022/04/13 03:51:37;;;;;;;3.30;3.00;;;;;;;11.55;55.21;100027.25;5073317;28;20512;-66
2022/04/13 03:54:04;;;;;;;3.63;3.33;;;;;;;11.67;54.76;100024.19;5078314;28;20485;-66
2022/04/13 03:56:31;;;;;;;6.07;3.20;;;;;;;11.74;54.50;100027.09;5060405;28;20477;-66
2022/04/13 03:58:59;;;;;;;5.10;3.80;;;;;;;11.76;54.22;100032.28;5060762;28;20460;-67
2022/04/13 04:01:26;;;;;;;4.83;4.13;;;;;;;11.69;55.68;100040.94;5074823;28;20510;-66
2022/04/13 04:03:53;;;;;;;5.27;3.60;;;;;;;11.67;55.26;100042.91;5071405;28;20440;-67
2022/04/13 04:06:20;;;;;;;5.00;3.67;;;;;;;11.61;55.28;100037.34;5054022;28;20477;-67
2022/04/13 04:08:47;;;;;;;4.00;3.43;;;;;;;11.57;55.52;100046.69;5073710;28;20440;-66
2022/04/13 04:11:14;;;;;;;4.70;3.90;;;;;;;11.54;55.76;100046.97;5062906;28;20595;-66
2022/04/13 04:13:40;;;;;;;3.87;3.13;;;;;;;11.48;56.00;100054.63;5076196;28;20671;-67
2022/04/13 04:16:09;;;;;;;4.40;3.60;;;;;;;11.44;56.28;100050.56;5065175;28;20488;-67
2022/04/13 04:18:35;;;;;;;7.33;3.40;;;;;;;11.38;57.48;100051.16;5062972;28;20483;-66
2022/04/13 04:21:02;;;;;;;4.10;3.37;;;;;;;11.29;57.61;100058.25;5057693;28;20741;-67
2022/04/13 04:23:29;;;;;;;4.70;3.33;;;;;;;11.22;58.09;100061.69;5060084;28;20503;-66
2022/04/13 04:25:55;;;;;;;3.63;3.30;;;;;;;11.19;58.17;100059.31;5059926;28;20480;-67
2022/04/13 04:28:22;;;;;;;7.73;3.50;;;;;;;11.11;58.09;100063.56;5060888;28;20417;-67
2022/04/13 04:30:49;;;;;;;5.30;3.70;;;;;;;11.06;58.80;100057.00;5059413;28;20518;-67
2022/04/13 04:33:17;;;;;;;5.10;4.57;;;;;;;11.01;58.70;100062.78;5059905;28;20457;-67
2022/04/13 04:35:47;;;;;;;4.10;3.47;;;;;;;11.03;58.65;100070.66;5059418;28;20556;-67
2022/04/13 04:38:13;;;;;;;5.90;3.83;;;;;;;10.98;58.84;100070.25;5066815;28;20459;-67
2022/04/13 04:40:40;;;;;;;4.57;4.10;;;;;;;10.93;59.34;100066.16;5064164;28;20495;-66
2022/04/13 04:43:07;;;;;;;7.33;3.57;;;;;;;10.91;58.78;100073.50;5057250;28;20530;-66
2022/04/13 04:45:34;;;;;;;5.13;3.30;;;;;;;10.92;58.63;100075.22;5069246;28;20486;-67
2022/04/13 04:48:04;;;;;;;5.90;3.60;;;;;;;10.98;58.53;100078.28;5077505;28;20452;-67
2022/04/13 04:50:33;;;;;;;9.03;5.77;;;;;;;11.04;58.49;100075.00;5066235;28;20523;-67
2022/04/13 04:53:00;;;;;;;3.93;3.40;;;;;;;11.06;58.88;100078.41;5072194;28;20456;-67
2022/04/13 04:55:31;;;;;;;4.47;4.00;;;;;;;11.09;58.34;100076.25;5078042;28;20494;-67
2022/04/13 04:57:57;;;;;;;6.50;3.50;;;;;;;11.15;58.56;100074.81;5076805;28;20479;-68
2022/04/13 05:00:25;;;;;;;7.17;4.63;;;;;;;11.18;58.89;100081.69;5058401;28;20453;-67
2022/04/13 05:02:52;;;;;;;7.03;4.10;;;;;;;11.16;60.47;100089.88;5065247;28;20486;-66
2022/04/13 05:05:20;;;;;;;8.37;5.33;;;;;;;11.10;60.96;100091.31;5064745;28;20487;-67
2022/04/13 05:07:48;;;;;;;5.90;4.33;;;;;;;11.14;60.15;100093.69;5062659;28;20487;-67
2022/04/13 05:10:15;;;;;;;4.20;3.60;;;;;;;11.27;59.49;100099.56;5056291;28;20518;-67
2022/04/13 05:12:43;;;;;;;7.00;4.00;;;;;;;11.34;58.49;100094.44;5057842;28;20491;-67
2022/04/13 05:15:11;;;;;;;9.10;4.03;;;;;;;11.47;59.57;100094.91;5057830;28;20437;-67
2022/04/13 05:17:37;;;;;;;8.30;4.57;;;;;;;11.52;59.63;100099.84;5058798;28;20471;-67
2022/04/13 05:20:06;;;;;;;4.53;4.03;;;;;;;11.59;59.33;100107.09;5058296;28;20457;-67
2022/04/13 05:22:33;;;;;;;6.13;4.60;;;;;;;11.68;59.89;100108.88;5055500;28;20460;-67
2022/04/13 05:25:04;;;;;;;10.83;5.40;;;;;;;11.68;60.03;100106.22;5055266;28;20594;-66
2022/04/13 05:27:31;;;;;;;10.73;5.23;;;;;;;11.76;60.48;100104.59;5079058;28;20491;-67
2022/04/13 05:29:58;;;;;;;8.80;5.30;;;;;;;12.00;60.72;100104.03;5081617;28;20454;-67
2022/04/13 05:32:25;;;;;;;9.87;5.97;;;;;;;12.28;59.66;100115.50;5067237;28;20468;-67
2022/04/13 05:34:58;;;;;;;12.47;6.43;;;;;;;12.61;58.89;100119.25;5067769;28;20490;-67
2022/04/13 05:37:25;;;;;;;10.67;5.20;;;;;;;12.95;58.14;100123.84;5067630;28;20484;-67
2022/04/13 05:39:51;;;;;;;12.53;6.63;;;;;;;13.21;56.35;100127.47;5059603;28;20491;-68
2022/04/13 05:42:23;;;;;;;8.27;4.87;;;;;;;13.58;54.70;100129.84;5059782;28;20497;-68
2022/04/13 05:44:50;;;;;;;6.93;5.57;;;;;;;14.06;53.48;100130.97;5048804;28;21017;-67
2022/04/13 05:47:17;;;;;;;10.53;7.07;;;;;;;14.49;52.40;100122.72;5066794;28;20476;-67
2022/04/13 05:49:44;;;;;;;7.13;4.53;;;;;;;14.30;49.26;100130.16;5075329;28;20459;-67
2022/04/13 05:52:10;;;;;;;9.80;6.63;;;;;;;14.37;52.86;100130.28;5061526;28;21236;-67
2022/04/13 05:54:38;;;;;;;9.73;6.70;;;;;;;14.22;53.03;100138.22;5062701;28;20426;-67
2022/04/13 05:57:06;;;;;;;13.60;5.30;;;;;;;13.97;52.76;100140.00;5061217;28;20514;-67
2022/04/13 05:59:34;;;;;;;6.53;4.70;;;;;;;13.83;53.85;100140.66;5060903;28;20437;-67
2022/04/13 06:02:00;;;;;;;8.57;4.67;;;;;;;13.53;53.56;100134.88;5066461;28;20486;-67
2022/04/13 06:04:27;;;;;;;6.17;4.60;;;;;;;13.56;54.61;100143.44;5061871;28;20429;-67
2022/04/13 06:06:55;;;;;;;13.93;5.60;;;;;;;13.44;54.53;100147.44;5060266;28;20476;-67
2022/04/13 06:09:22;;;;;;;14.23;6.70;;;;;;;13.63;55.07;100156.25;5062630;28;20445;-66
2022/04/13 06:11:48;;;;;;;9.57;5.50;;;;;;;13.72;54.04;100158.78;5061002;28;20490;-67
2022/04/13 06:14:15;;;;;;;10.70;5.13;;;;;;;13.60;53.74;100161.94;5061459;28;20437;-67
2022/04/13 06:16:43;;;;;;;12.63;5.20;;;;;;;13.71;53.97;100158.94;5061244;28;20508;-67
2022/04/13 06:19:10;;;;;;;8.77;5.50;;;;;;;13.96;52.61;100148.22;5061876;28;20421;-67
2022/04/13 06:21:37;;;;;;;11.77;5.10;;;;;;;14.22;52.58;100151.66;5059434;28;20500;-67
2022/04/13 06:24:04;;;;;;;5.93;4.67;;;;;;;14.12;53.36;100159.03;5063825;28;20474;-67
2022/04/13 06:26:31;;;;;;;10.40;5.30;;;;;;;14.23;54.41;100157.84;5073365;28;20488;-67
2022/04/13 06:28:58;;;;;;;13.00;5.57;;;;;;;14.41;53.10;100174.69;5061535;28;20575;-68
2022/04/13 06:31:24;;;;;;;8.17;4.77;;;;;;;14.62;51.85;100166.16;5060199;28;20472;-67
2022/04/13 06:33:53;;;;;;;6.20;4.03;;;;;;;15.07;52.17;100174.66;5063618;28;20491;-67
2022/04/13 06:36:20;;;;;;;9.23;5.00;;;;;;;15.22;51.25;100172.09;5073535;28;20475;-67
2022/04/13 06:38:46;;;;;;;9.50;4.37;;;;;;;15.02;51.98;100171.66;5061163;28;20437;-67
2022/04/13 06:41:13;;;;;;;6.57;4.50;;;;;;;15.07;51.42;100172.81;5059546;28;20488;-67
2022/04/13 06:43:40;;;;;;;7.33;4.83;;;;;;;15.25;51.07;100180.66;5060125;28;20490;-67
2022/04/13 06:46:08;;;;;;;10.77;4.80;;;;;;;15.53;48.99;100174.00;5070565;28;20979;-67
2022/04/13 06:48:35;;;;;;;6.03;3.80;;;;;;;15.47;48.31;100172.88;5078808;28;20464;-66
2022/04/13 06:51:03;;;;;;;5.40;4.07;;;;;;;15.43;48.09;100182.28;5062876;28;20578;-67
2022/04/13 06:53:30;;;;;;;5.13;4.00;;;;;;;15.56;46.98;100182.59;5076990;28;20502;-69
2022/04/13 06:55:57;;;;;;;5.63;3.90;;;;;;;15.82;47.87;100182.31;5079242;28;20475;-67
2022/04/13 06:58:24;;;;;;;6.13;3.67;;;;;;;15.80;47.52;100191.63;5080261;28;20462;-70
2022/04/13 07:00:50;;;;;;;8.93;3.50;;;;;;;16.22;47.20;100190.34;5079381;28;20483;-68
2022/04/13 07:03:17;;;;;;;6.43;4.30;;;;;;;16.15;48.18;100198.31;5060913;28;20457;-66
2022/04/13 07:05:44;;;;;;;5.00;4.23;;;;;;;16.27;47.87;100197.91;5079738;28;20487;-67
2022/04/13 07:08:12;;;;;;;6.10;4.30;;;;;;;16.07;49.13;100203.75;5080565;28;20891;-67
2022/04/13 07:10:39;;;;;;;9.23;4.40;;;;;;;16.47;49.00;100211.75;5079329;28;20471;-67
2022/04/13 07:13:07;;;;;;;5.73;4.60;;;;;;;16.77;48.19;100196.50;5079128;28;20461;-67
2022/04/13 07:15:33;;;;;;;7.47;4.73;;;;;;;17.35;46.68;100196.78;5061301;28;20483;-66
2022/04/13 07:18:00;;;;;;;6.60;4.20;;;;;;;17.28;46.86;100204.81;5080631;28;20428;-67
2022/04/13 07:20:27;;;;;;;11.33;4.93;;;;;;;17.86;44.60;100204.13;5068490;28;20495;-66
2022/04/13 07:22:54;;;;;;;7.07;4.40;;;;;;;18.43;44.32;100206.00;5061224;28;20453;-68
2022/04/13 07:25:23;;;;;;;12.20;4.63;;;;;;;20.12;40.00;100207.81;5058750;28;20500;-68
2022/04/13 07:27:50;;;;;;;13.47;4.90;;;;;;;20.30;39.30;100217.25;5063715;28;20479;-72
2022/04/13 07:30:17;;;;;;;5.30;4.60;;;;;;;20.95;37.56;100214.81;5074503;28;20444;-71
2022/04/13 07:32:45;;;;;;;10.27;4.30;;;;;;;21.54;36.28;100226.66;5068413;28;20479;-73
2022/04/13 07:35:11;;;;;;;6.57;4.57;;;;;;;21.88;35.69;100226.59;5058946;28;20441;-70
2022/04/13 07:37:40;;;;;;;4.43;3.90;;;;;;;21.20;36.11;100225.06;5058843;28;20445;-71
2022/04/13 07:40:09;;;;;;;4.97;4.40;;;;;;;21.85;35.62;100233.28;5054184;28;20851;-73
2022/04/13 07:42:37;;;;;;;5.93;4.30;;;;;;;22.14;34.29;100223.72;5056958;28;20461;-71
2022/04/13 07:45:04;;;;;;;8.57;4.43;;;;;;;21.09;36.42;100228.41;5055652;28;20484;-70
2022/04/13 07:47:31;;;;;;;10.10;3.93;;;;;;;20.79;36.86;100226.13;5077935;28;20460;-71
2022/04/13 07:49:58;;;;;;;6.60;4.00;;;;;;;21.39;35.80;100226.91;5079105;28;20448;-71
2022/04/13 07:52:25;;;;;;;8.23;4.90;;;;;;;21.63;36.06;100233.56;5059162;28;20472;-71
2022/04/13 07:54:51;;;;;;;11.20;4.80;;;;;;;22.01;35.67;100234.69;5059827;28;20571;-70
2022/04/13 07:57:18;;;;;;;6.30;4.17;;;;;;;23.16;33.50;100236.50;5068493;28;20529;-71
2022/04/13 07:59:46;;;;;;;9.30;4.30;;;;;;;24.20;31.24;100230.28;5079284;28;20476;-70
2022/04/13 08:02:13;;;;;;;7.80;3.80;;;;;;;24.35;30.98;100238.06;5070247;28;20480;-70
2022/04/13 08:04:42;;;;;;;4.97;4.47;;;;;;;23.96;32.20;100237.56;5078403;28;21079;-70
2022/04/13 08:07:09;;;;;;;5.07;4.03;;;;;;;24.16;31.32;100240.84;5077350;28;20499;-71
2022/04/13 08:09:37;;;;;;;4.80;4.00;;;;;;;24.53;31.45;100242.63;5078880;28;20519;-71
2022/04/13 08:12:04;;;;;;;6.47;4.37;;;;;;;25.59;29.61;100247.44;5077223;28;20571;-71
2022/04/13 08:14:31;;;;;;;4.43;3.97;;;;;;;26.14;28.30;100254.38;5059318;28;20449;-71
2022/04/13 08:17:03;;;;;;;6.00;3.57;;;;;;;26.22;28.33;100246.59;5044226;28;20601;-71
2022/04/13 08:19:30;;;;;;;5.10;4.47;;;;;;;25.72;29.84;100256.22;5067343;28;20451;-71
2022/04/13 08:21:57;;;;;;;5.13;4.30;;;;;;;26.65;28.47;100256.19;5075974;28;20490;-71
2022/04/13 08:24:23;;;;;;;4.77;3.97;;;;;;;27.42;27.22;100248.41;5069094;28;21018;-71
2022/04/13 08:26:50;;;;;;;4.17;3.77;;;;;;;25.00;30.74;100256.47;5068560;28;20484;-71
2022/04/13 08:29:17;;;;;;;6.60;3.70;;;;;;;26.88;28.00;100254.41;5063320;28;20537;-71
2022/04/13 08:31:43;;;;;;;5.40;3.90;;;;;;;28.29;25.92;100260.50;5064507;28;20480;-71
2022/04/13 08:34:11;;;;;;;9.23;4.57;;;;;;;26.88;27.56;100262.63;5058910;28;20445;-71
2022/04/13 08:36:38;;;;;;;6.10;5.17;;;;;;;25.79;29.41;100258.00;5063899;28;20479;-71
2022/04/13 08:39:13;;;;;;;6.67;4.60;;;;;;;24.83;29.71;100261.78;5059393;28;20709;-71
2022/04/13 08:41:47;;;;;;;6.27;4.10;;;;;;;26.14;28.96;100270.81;5057312;28;20472;-70
2022/04/13 08:44:17;;;;;;;7.90;3.73;;;;;;;26.10;28.39;100265.81;5073116;28;21030;-71
2022/04/13 08:46:44;;;;;;;9.70;4.20;;;;;;;26.70;26.90;100268.34;5058632;28;20492;-71
2022/04/13 08:49:14;;;;;;;6.10;3.90;;;;;;;26.60;27.30;100269.78;5058325;28;20430;-70
2022/04/13 08:51:41;;;;;;;6.83;4.27;;;;;;;27.23;27.70;100264.28;5057463;28;20500;-71
2022/04/13 08:54:18;;;;;;;6.20;4.17;;;;;;;28.62;25.60;100271.63;5058771;28;20445;-71
2022/04/13 08:56:48;;;;;;;6.20;3.90;;;;;;;27.53;26.42;100268.59;5038327;28;20481;-71
2022/04/13 08:59:20;;;;;;;5.10;3.60;;;;;;;25.87;28.27;100277.66;5038832;28;20448;-71
2022/04/13 09:01:52;;;;;;;6.90;4.10;;;;;;;24.98;29.58;100272.25;5038544;28;20834;-71
2022/04/13 09:04:22;;;;;;;6.63;4.27;;;;;;;26.40;27.70;100274.88;5044772;28;20461;-71
2022/04/13 09:06:48;;;;;;;5.97;3.83;;;;;;;27.08;27.40;100272.28;5077720;28;20506;-71
2022/04/13 09:09:16;;;;;;;6.00;4.17;;;;;;;26.00;28.92;100276.56;5078908;28;20432;-71
2022/04/13 09:11:44;;;;;;;12.33;4.70;;;;;;;26.62;27.68;100283.28;5077497;28;20479;-71
2022/04/13 09:14:11;;;;;;;9.00;3.83;;;;;;;25.33;29.26;100271.50;5075168;28;20461;-71
2022/04/13 09:16:38;;;;;;;9.63;4.47;;;;;;;25.68;29.18;100274.22;5058065;28;20473;-70
2022/04/13 09:19:05;;;;;;;6.50;4.33;;;;;;;25.70;29.17;100277.53;5060463;28;20463;-71
2022/04/13 09:21:33;;;;;;;6.17;3.90;;;;;;;26.68;28.13;100287.78;5057493;28;20484;-71
2022/04/13 09:24:01;;;;;;;7.53;4.17;;;;;;;27.15;27.67;100286.66;5058184;28;20510;-71
2022/04/13 09:26:28;;;;;;;6.33;4.23;;;;;;;26.74;27.57;100285.97;5057761;28;20481;-71
2022/04/13 09:28:55;;;;;;;11.60;3.83;;;;;;;25.53;30.08;100284.81;5059649;28;20628;-71
2022/04/13 09:31:22;;;;;;;7.30;4.30;;;;;;;26.73;27.38;100292.53;5076693;28;20497;-71
2022/04/13 09:33:49;;;;;;;6.73;4.20;;;;;;;27.37;26.74;100295.00;5058374;28;20440;-71
2022/04/13 09:36:15;;;;;;;6.80;4.40;;;;;;;26.55;28.36;100297.13;5056847;28;20902;-70
2022/04/13 09:38:43;;;;;;;6.90;4.30;;;;;;;25.87;28.75;100288.59;5059051;28;20456;-71
2022/04/13 09:41:12;;;;;;;8.90;4.60;;;;;;;26.95;27.47;100300.88;5057160;28;20508;-71
2022/04/13 09:43:39;;;;;;;15.43;4.57;;;;;;;26.54;27.52;100303.66;5066132;28;20495;-71
2022/04/13 09:46:06;;;;;;;8.23;5.03;;;;;;;26.86;27.53;100303.19;5057619;28;20504;-71
2022/04/13 09:48:34;;;;;;;7.33;4.20;;;;;;;27.48;27.04;100305.06;5057864;28;20441;-71
2022/04/13 09:51:02;;;;;;;7.43;3.80;;;;;;;27.83;26.63;100298.41;5056672;28;20460;-71
2022/04/13 09:53:29;;;;;;;9.03;4.63;;;;;;;27.24;27.83;100296.97;5058412;28;20457;-71
2022/04/13 09:55:59;;;;;;;7.87;4.37;;;;;;;27.80;27.10;100298.91;5076480;28;20533;-71
2022/04/13 09:58:28;;;;;;;6.93;3.90;;;;;;;28.82;24.78;100312.22;5039306;28;20422;-71
2022/04/13 10:01:00;;;;;;;8.20;4.13;;;;;;;28.24;27.17;100306.38;5038098;28;20488;-71
2022/04/13 10:03:27;;;;;;;7.80;3.60;;;;;;;28.35;25.41;100300.75;5047239;28;20495;-72
2022/04/13 10:05:55;;;;;;;12.50;4.20;;;;;;;26.51;29.33;100304.19;5058399;28;20592;-71
2022/04/13 10:08:24;;;;;;;8.10;3.70;;;;;;;26.75;28.36;100298.59;5078224;28;20586;-71
2022/04/13 10:10:52;;;;;;;10.80;4.27;;;;;;;25.86;29.92;100302.53;5078357;28;20480;-71
2022/04/13 10:13:33;;;;;;;8.23;3.70;;;;;;;25.27;31.43;100297.91;5072768;28;20817;-71
2022/04/13 10:16:01;;;;;;;10.77;4.33;;;;;;;25.88;29.82;100301.25;5061676;28;20537;-70
2022/04/13 10:18:31;;;;;;;7.77;4.30;;;;;;;26.34;30.42;100301.38;5058101;28;20771;-71
2022/04/13 10:20:58;;;;;;;11.70;3.60;;;;;;;25.94;30.05;100299.47;5040427;28;20852;-71
2022/04/13 10:23:25;;;;;;;6.97;3.80;;;;;;;26.67;29.17;100297.91;5054559;28;20513;-71
2022/04/13 10:26:08;;;;;;;6.57;3.30;;;;;;;26.64;28.99;100301.16;5060393;28;20480;-71
2022/04/13 10:28:47;;;;;;;7.17;3.40;;;;;;;27.02;29.09;100299.63;5062174;28;20464;-71
2022/04/13 10:31:13;;;;;;;11.50;4.37;;;;;;;28.41;26.37;100287.88;5055704;28;20854;-72
2022/04/13 10:33:46;;;;;;;6.63;3.93;;;;;;;28.23;26.42;100307.44;5066455;28;20448;-71
2022/04/13 10:36:13;;;;;;;12.40;3.87;;;;;;;28.53;27.84;100291.31;5080792;28;20468;-71
2022/04/13 10:38:40;;;;;;;5.10;2.80;;;;;;;29.78;24.97;100294.03;5080929;28;20482;-71
2022/04/13 10:41:07;;;;;;;7.43;3.60;;;;;;;29.53;25.42;100291.91;5070362;28;20964;-71
2022/04/13 10:43:34;;;;;;;9.83;3.97;;;;;;;28.14;26.89;100287.81;5060904;28;20530;-71
2022/04/13 10:46:02;;;;;;;9.40;4.30;;;;;;;28.41;26.01;100287.06;5051409;28;20482;-71
2022/04/13 10:48:32;;;;;;;6.67;3.97;;;;;;;29.00;25.83;100294.53;5041501;28;20858;-71
2022/04/13 10:51:04;;;;;;;9.83;3.83;;;;;;;29.17;25.05;100295.25;5040097;28;20474;-71
2022/04/13 10:53:31;;;;;;;8.73;3.90;;;;;;;29.71;24.19;100294.22;5040007;28;20454;-71
2022/04/13 10:56:00;;;;;;;7.17;3.77;;;;;;;29.40;26.39;100293.22;5040867;28;20482;-71
2022/04/13 10:58:44;;;;;;;6.20;2.90;;;;;;;28.64;26.43;100281.25;5041571;28;20775;-71
2022/04/13 11:01:15;;;;;;;7.83;3.13;;;;;;;28.05;27.52;100287.44;5044869;28;20511;-71
2022/04/13 11:03:42;;;;;;;8.23;3.83;;;;;;;27.60;27.97;100296.69;5046964;28;20471;-70
2022/04/13 11:06:10;;;;;;;10.80;4.73;;;;;;;28.04;27.36;100288.56;5051477;28;20584;-71
2022/04/13 11:08:44;;;;;;;7.93;4.33;;;;;;;27.92;27.02;100288.66;5040749;28;20476;-71
2022/04/13 11:11:11;;;;;;;8.60;4.30;;;;;;;28.50;25.95;100286.31;5053471;28;20507;-71
2022/04/13 11:13:37;;;;;;;10.53;4.00;;;;;;;28.86;26.09;100285.88;5056296;28;20446;-71
2022/04/13 11:16:16;;;;;;;8.30;4.40;;;;;;;29.12;26.16;100292.44;5042129;28;20523;-72
2022/04/13 11:18:43;;;;;;;10.03;4.03;;;;;;;29.60;24.97;100295.25;5041186;28;21014;-71
2022/04/13 11:21:11;;;;;;;10.10;3.70;;;;;;;29.26;26.15;100293.66;5039118;28;20470;-71
2022/04/13 11:23:56;;;;;;;7.57;3.70;;;;;;;29.02;27.23;100290.41;5044102;28;20477;-71
2022/04/13 11:26:27;;;;;;;12.07;4.57;;;;;;;28.27;27.49;100295.69;5040346;28;20703;-72